Time;durP1;ratioP1;P1;durP2;ratioP2;P2;SDS_P1;SDS_P2;PMS_P1;PMS_P2;Temp;Humidity;BMP_temperature;BMP_pressure;BME280_temperature;BME280_humidity;BME280_pressure;Samples;Min_cycle;Max_cycle;Signal;HPM_P1;HPM_P2
2021/08/08 00:02:24;;;;;;;3.53;1.80;;;16.40;94.40;;;;;;5040684;28;20253;-89
2021/08/08 00:04:50;;;;;;;2.17;1.70;;;16.40;94.50;;;;;;5019393;28;20681;-88
2021/08/08 00:07:16;;;;;;;2.40;2.23;;;16.30;94.80;;;;;;5018086;28;20196;-88
2021/08/08 00:09:43;;;;;;;3.30;1.70;;;16.30;95.60;;;;;;5023160;28;20217;-88
2021/08/08 00:12:09;;;;;;;3.50;2.07;;;16.40;94.90;;;;;;5017227;28;20209;-87
2021/08/08 00:14:35;;;;;;;2.30;2.03;;;16.40;95.10;;;;;;5021083;28;20193;-88
2021/08/08 00:17:01;;;;;;;2.20;2.00;;;16.40;95.10;;;;;;5024374;28;20212;-89
2021/08/08 00:19:26;;;;;;;2.40;1.93;;;16.50;94.80;;;;;;5014980;28;20207;-88
2021/08/08 00:21:52;;;;;;;2.47;1.90;;;16.50;95.10;;;;;;5022536;28;20704;-89
2021/08/08 00:24:18;;;;;;;3.57;1.97;;;16.50;94.90;;;;;;5022641;28;20199;-89
2021/08/08 00:26:44;;;;;;;2.63;2.23;;;16.50;95.40;;;;;;5005206;28;20195;-88
2021/08/08 00:29:10;;;;;;;2.27;2.00;;;16.50;95.30;;;;;;5039012;28;20190;-89
2021/08/08 00:31:36;;;;;;;2.10;1.80;;;16.40;95.30;;;;;;5021676;28;20224;-88
2021/08/08 00:34:02;;;;;;;2.10;1.97;;;16.40;95.30;;;;;;5035278;28;20201;-87
2021/08/08 00:36:27;;;;;;;2.40;2.13;;;16.40;95.40;;;;;;5020631;28;20187;-89
2021/08/08 00:39:29;;;;;;;2.40;2.20;;;16.40;95.00;;;;;;5021862;28;20206;-87
2021/08/08 00:42:24;;;;;;;3.47;2.13;;;16.50;94.60;;;;;;4988699;28;20198;-89
2021/08/08 00:44:50;;;;;;;2.00;1.80;;;16.50;94.40;;;;;;5025032;28;20216;-88
2021/08/08 00:47:16;;;;;;;1.90;1.80;;;16.50;94.60;;;;;;5005219;28;20276;-88
2021/08/08 00:49:42;;;;;;;2.17;1.93;;;16.50;94.10;;;;;;5009252;28;20276;-88
2021/08/08 00:52:07;;;;;;;2.43;1.97;;;16.40;94.40;;;;;;5018249;28;20252;-89
2021/08/08 00:54:33;;;;;;;2.03;1.93;;;16.40;93.80;;;;;;5029794;28;20204;-87
2021/08/08 00:56:59;;;;;;;1.80;1.70;;;16.50;93.80;;;;;;5018604;28;20265;-88
2021/08/08 00:59:25;;;;;;;1.90;1.80;;;16.40;93.90;;;;;;5021110;28;20212;-89
2021/08/08 01:01:53;;;;;;;1.73;1.63;;;16.40;93.90;;;;;;5029142;28;20182;-89
2021/08/08 01:04:26;;;;;;;1.80;1.70;;;16.30;94.80;;;;;;5019675;28;20280;-89
2021/08/08 01:07:03;;;;;;;3.43;1.93;;;16.40;94.70;;;;;;5018624;28;20267;-89
2021/08/08 01:09:36;;;;;;;2.30;1.60;;;16.40;94.20;;;;;;5020371;28;20737;-88
2021/08/08 01:12:02;;;;;;;3.43;1.80;;;16.40;93.40;;;;;;5020854;28;20184;-90
2021/08/08 01:14:30;;;;;;;2.30;1.60;;;16.50;92.60;;;;;;5020363;28;20203;-89
2021/08/08 01:16:57;;;;;;;2.27;1.80;;;16.60;92.70;;;;;;5021504;28;20602;-89
2021/08/08 01:19:28;;;;;;;1.80;1.70;;;16.60;92.20;;;;;;5019821;28;20192;-89
2021/08/08 01:21:54;;;;;;;3.27;1.77;;;16.60;91.00;;;;;;5018499;28;20271;-89
2021/08/08 01:24:21;;;;;;;3.27;1.80;;;16.50;92.00;;;;;;5036621;28;20212;-89
2021/08/08 01:26:50;;;;;;;1.90;1.80;;;16.40;91.90;;;;;;5017599;28;20187;-89
2021/08/08 01:29:15;;;;;;;2.53;1.70;;;16.50;92.00;;;;;;5004088;28;20193;-89
2021/08/08 01:31:56;;;;;;;2.03;1.70;;;16.50;91.80;;;;;;5020447;28;20573;-89
2021/08/08 01:34:21;;;;;;;2.00;1.73;;;16.40;92.10;;;;;;5020250;28;20245;-89
2021/08/08 01:36:47;;;;;;;2.67;2.00;;;16.50;92.10;;;;;;5015859;28;20228;-88
2021/08/08 01:39:18;;;;;;;2.93;1.90;;;16.30;92.70;;;;;;5006628;28;20251;-88
2021/08/08 01:41:49;;;;;;;3.80;2.17;;;16.40;92.60;;;;;;5020626;28;20214;-89
2021/08/08 01:44:18;;;;;;;2.27;1.67;;;16.40;92.40;;;;;;5019157;28;20200;-88
2021/08/08 01:46:47;;;;;;;2.30;1.80;;;16.40;92.60;;;;;;5015475;28;20692;-89
2021/08/08 01:49:17;;;;;;;2.57;2.20;;;16.50;92.40;;;;;;5018697;28;20240;-88
2021/08/08 01:51:43;;;;;;;2.27;1.50;;;16.50;92.40;;;;;;5016661;28;20213;-88
2021/08/08 01:54:08;;;;;;;2.07;1.93;;;16.50;92.70;;;;;;5001303;28;20598;-89
2021/08/08 01:56:34;;;;;;;2.87;2.40;;;16.40;92.90;;;;;;5017881;28;20224;-89
2021/08/08 01:59:00;;;;;;;1.80;1.70;;;16.40;93.20;;;;;;5020558;28;20607;-90
2021/08/08 02:01:28;;;;;;;2.07;1.90;;;16.40;93.80;;;;;;5017003;28;20224;-90
2021/08/08 02:03:59;;;;;;;3.40;1.90;;;16.50;92.90;;;;;;5020736;28;20210;-89
2021/08/08 02:06:24;;;;;;;4.93;1.97;;;16.60;93.00;;;;;;5019507;28;20261;-88
2021/08/08 02:08:50;;;;;;;2.53;1.80;;;16.70;91.80;;;;;;5019011;28;20191;-90
2021/08/08 02:11:16;;;;;;;2.47;2.28;;;16.70;92.00;;;;;;5022170;28;20223;-87
2021/08/08 02:13:41;;;;;;;2.42;1.98;;;16.80;91.00;;;;;;5021662;28;20214;-87
2021/08/08 02:16:07;;;;;;;1.80;1.70;;;16.90;90.90;;;;;;5019990;28;20634;-89
2021/08/08 02:18:33;;;;;;;2.97;1.90;;;16.90;90.40;;;;;;5035490;28;20223;-90
2021/08/08 02:20:59;;;;;;;3.00;2.17;;;16.80;90.80;;;;;;5018021;28;20262;-89
2021/08/08 02:23:24;;;;;;;1.80;1.70;;;16.80;90.90;;;;;;5014891;28;20184;-89
2021/08/08 02:25:51;;;;;;;3.03;2.00;;;16.90;90.70;;;;;;5021007;28;20207;-90
2021/08/08 02:28:17;;;;;;;2.53;2.33;;;16.90;90.50;;;;;;5034751;28;20203;-89
2021/08/08 02:30:44;;;;;;;2.10;1.90;;;16.70;91.30;;;;;;5019894;28;20576;-89
2021/08/08 02:33:09;;;;;;;2.50;2.13;;;16.60;92.30;;;;;;5019852;28;20196;-88
2021/08/08 02:35:35;;;;;;;4.47;2.20;;;16.50;93.40;;;;;;5019882;28;20198;-89
2021/08/08 02:38:01;;;;;;;3.00;2.13;;;16.40;93.90;;;;;;5020058;28;20751;-89
2021/08/08 02:40:27;;;;;;;2.20;2.00;;;16.20;94.70;;;;;;5034663;28;20237;-88
2021/08/08 02:42:52;;;;;;;5.73;2.17;;;16.20;94.80;;;;;;5019411;28;20713;-89
2021/08/08 02:45:18;;;;;;;2.93;2.20;;;16.30;94.40;;;;;;5018877;28;20241;-89
2021/08/08 02:47:44;;;;;;;3.77;1.93;;;16.30;94.10;;;;;;5011702;28;20190;-90
2021/08/08 02:50:11;;;;;;;4.27;2.10;;;16.30;93.90;;;;;;5009045;28;20205;-88
2021/08/08 02:52:41;;;;;;;4.07;2.00;;;16.30;93.50;;;;;;5003787;28;20273;-89
2021/08/08 02:55:08;;;;;;;2.30;2.10;;;16.40;92.80;;;;;;5020288;28;20664;-90
2021/08/08 02:57:34;;;;;;;2.60;2.00;;;16.30;93.50;;;;;;5017944;28;20212;-89
2021/08/08 03:00:00;;;;;;;6.43;2.50;;;16.30;93.70;;;;;;5021152;28;20813;-89
2021/08/08 03:02:25;;;;;;;4.03;2.20;;;16.20;93.60;;;;;;5017640;28;20198;-88
2021/08/08 03:04:51;;;;;;;1.80;1.70;;;16.30;93.40;;;;;;5017394;28;20193;-89
2021/08/08 03:07:16;;;;;;;3.23;1.87;;;16.30;92.90;;;;;;5022094;28;20208;-89
2021/08/08 03:09:42;;;;;;;3.90;2.33;;;16.40;92.70;;;;;;5022794;28;20612;-88
2021/08/08 03:12:08;;;;;;;2.47;1.90;;;16.30;93.00;;;;;;5037213;28;20690;-87
2021/08/08 03:14:34;;;;;;;5.30;2.50;;;16.30;93.00;;;;;;5013757;28;20698;-88
2021/08/08 03:16:59;;;;;;;2.70;2.00;;;16.30;92.60;;;;;;5021124;28;20240;-89
2021/08/08 03:19:25;;;;;;;3.33;2.10;;;16.30;92.20;;;;;;5020054;28;20201;-89
2021/08/08 03:21:51;;;;;;;3.40;2.17;;;16.30;92.90;;;;;;5019890;28;20190;-88
2021/08/08 03:24:16;;;;;;;3.67;2.33;;;16.30;92.60;;;;;;5018325;28;20206;-88
2021/08/08 03:26:42;;;;;;;2.23;1.70;;;16.30;92.00;;;;;;5022769;28;20203;-88
2021/08/08 03:29:09;;;;;;;2.23;2.13;;;16.40;91.80;;;;;;5020702;28;20660;-89
2021/08/08 03:31:35;;;;;;;2.43;2.23;;;16.30;91.70;;;;;;5037259;28;20252;-88
2021/08/08 03:34:01;;;;;;;5.03;1.80;;;16.30;91.80;;;;;;5045082;28;20197;-88
2021/08/08 03:36:27;;;;;;;3.17;2.00;;;16.20;92.10;;;;;;5047862;28;20200;-88
2021/08/08 03:38:53;;;;;;;3.03;2.10;;;16.30;92.30;;;;;;5029188;28;20251;-88
2021/08/08 03:41:19;;;;;;;2.70;2.00;;;16.30;92.00;;;;;;5021046;28;20291;-88
2021/08/08 03:43:44;;;;;;;3.97;1.90;;;16.30;92.40;;;;;;5021522;28;20213;-87
2021/08/08 03:46:10;;;;;;;3.50;2.40;;;16.20;92.90;;;;;;5019121;28;20616;-90
2021/08/08 03:48:36;;;;;;;3.73;2.33;;;16.30;93.10;;;;;;5038614;28;20194;-88
2021/08/08 03:51:01;;;;;;;4.47;2.30;;;16.10;93.40;;;;;;5039148;28;20216;-88
2021/08/08 03:53:27;;;;;;;2.30;2.17;;;16.30;93.00;;;;;;5021455;28;20214;-89
2021/08/08 03:55:53;;;;;;;3.43;2.00;;;16.30;92.40;;;;;;5040228;28;20262;-87
2021/08/08 03:58:18;;;;;;;4.00;2.30;;;16.20;93.00;;;;;;5028396;28;20213;-88
2021/08/08 04:00:44;;;;;;;2.80;2.10;;;16.10;93.50;;;;;;5010824;28;20214;-88
2021/08/08 04:03:10;;;;;;;1.90;1.70;;;16.00;93.90;;;;;;5016414;28;20199;-89
2021/08/08 04:05:35;;;;;;;2.63;1.87;;;16.00;93.70;;;;;;5020340;28;20198;-89
2021/08/08 04:08:01;;;;;;;2.10;1.90;;;16.00;93.50;;;;;;5022275;28;20204;-87
2021/08/08 04:10:27;;;;;;;4.40;1.97;;;16.00;93.40;;;;;;5017656;28;20365;-89
2021/08/08 04:12:52;;;;;;;2.70;2.00;;;16.00;93.80;;;;;;5018374;28;20196;-89
2021/08/08 04:15:19;;;;;;;2.13;1.93;;;16.00;93.40;;;;;;5020812;28;20483;-88
2021/08/08 04:17:44;;;;;;;2.23;1.90;;;16.00;93.90;;;;;;5019111;28;20225;-88
2021/08/08 04:20:11;;;;;;;1.93;1.73;;;16.10;92.70;;;;;;5019528;28;20245;-89
2021/08/08 04:22:36;;;;;;;2.67;2.10;;;16.10;93.00;;;;;;5019107;28;20662;-89
2021/08/08 04:25:03;;;;;;;2.90;1.80;;;16.00;93.20;;;;;;5021100;28;20250;-89
2021/08/08 04:27:28;;;;;;;3.27;1.90;;;16.10;93.20;;;;;;5023064;28;20319;-88
2021/08/08 04:29:54;;;;;;;1.70;1.60;;;16.10;92.50;;;;;;5034355;28;20594;-89
2021/08/08 04:32:20;;;;;;;1.87;1.77;;;16.00;92.40;;;;;;5035977;28;20194;-88
2021/08/08 04:34:45;;;;;;;2.27;1.80;;;16.20;91.80;;;;;;5035619;28;20278;-86
2021/08/08 04:37:11;;;;;;;2.10;1.90;;;16.20;92.00;;;;;;5026763;28;20209;-89
2021/08/08 04:39:37;;;;;;;3.40;1.77;;;16.20;92.00;;;;;;5020621;28;20189;-88
2021/08/08 04:42:03;;;;;;;2.20;1.80;;;16.30;91.50;;;;;;5034051;28;20193;-89
2021/08/08 04:44:28;;;;;;;2.17;1.73;;;16.40;90.90;;;;;;5019571;28;20200;-88
2021/08/08 04:46:54;;;;;;;2.97;2.03;;;16.40;90.90;;;;;;5020955;28;20287;-87
2021/08/08 04:49:20;;;;;;;2.73;1.90;;;16.40;90.60;;;;;;5041623;28;20193;-88
2021/08/08 04:51:45;;;;;;;2.47;1.90;;;16.30;90.70;;;;;;5023977;28;20359;-89
2021/08/08 04:54:11;;;;;;;1.93;1.73;;;16.40;90.70;;;;;;5023394;28;20209;-90
2021/08/08 04:56:37;;;;;;;3.57;2.00;;;16.40;90.70;;;;;;5023948;28;20196;-88
2021/08/08 04:59:03;;;;;;;3.10;1.90;;;16.40;90.70;;;;;;5021767;28;20622;-89
2021/08/08 05:01:29;;;;;;;3.33;2.37;;;16.50;89.80;;;;;;5023237;28;20225;-88
2021/08/08 05:03:56;;;;;;;4.80;2.10;;;16.60;90.00;;;;;;5023425;28;20194;-87
2021/08/08 05:06:22;;;;;;;2.70;1.90;;;16.60;89.10;;;;;;5013701;28;20190;-89
2021/08/08 05:08:48;;;;;;;3.53;1.80;;;16.50;90.10;;;;;;5021566;28;20198;-89
2021/08/08 05:11:18;;;;;;;2.47;1.90;;;16.40;90.10;;;;;;5037445;28;20259;-89
2021/08/08 05:13:44;;;;;;;3.03;1.87;;;16.40;90.40;;;;;;5021571;28;20194;-88
2021/08/08 05:16:09;;;;;;;3.00;1.80;;;16.40;90.10;;;;;;5038180;28;20286;-89
2021/08/08 05:18:35;;;;;;;3.57;1.80;;;16.50;89.70;;;;;;5021873;28;20245;-89
2021/08/08 05:21:01;;;;;;;4.27;1.83;;;16.60;89.30;;;;;;5039383;28;20201;-89
2021/08/08 05:23:27;;;;;;;2.23;2.00;;;16.50;89.90;;;;;;5007130;28;20603;-90
2021/08/08 05:25:58;;;;;;;4.17;2.10;;;16.50;90.50;;;;;;5012295;28;20211;-89
2021/08/08 05:28:24;;;;;;;2.47;1.73;;;16.50;90.40;;;;;;5016423;28;20193;-89
2021/08/08 05:30:50;;;;;;;2.50;1.80;;;16.50;89.90;;;;;;5021355;28;20213;-88
2021/08/08 05:33:16;;;;;;;2.47;1.87;;;16.60;89.10;;;;;;5008890;28;20216;-89
2021/08/08 05:35:42;;;;;;;2.53;2.17;;;16.60;89.70;;;;;;5026587;28;20563;-90
2021/08/08 05:38:07;;;;;;;3.17;1.97;;;16.60;89.80;;;;;;5024203;28;20297;-89
2021/08/08 05:40:33;;;;;;;3.13;1.80;;;16.60;90.90;;;;;;5012994;28;20221;-88
2021/08/08 05:42:59;;;;;;;2.47;1.70;;;16.80;89.20;;;;;;5024076;28;20185;-89
2021/08/08 05:45:25;;;;;;;5.10;2.20;;;16.90;88.90;;;;;;5018693;28;20261;-88
2021/08/08 05:47:51;;;;;;;3.27;2.17;;;17.00;88.50;;;;;;5020805;28;20222;-88
2021/08/08 05:50:17;;;;;;;6.00;2.00;;;17.00;88.70;;;;;;5022665;28;20249;-89
2021/08/08 05:52:49;;;;;;;3.17;1.80;;;16.90;88.20;;;;;;5022816;28;20292;-89
2021/08/08 05:55:16;;;;;;;3.60;1.90;;;17.00;88.20;;;;;;5021743;28;20225;-89
2021/08/08 05:57:42;;;;;;;3.30;1.93;;;16.90;89.60;;;;;;5013923;28;21800;-90
2021/08/08 06:00:08;;;;;;;2.00;1.80;;;16.90;88.80;;;;;;5010541;28;20213;-88
2021/08/08 06:02:34;;;;;;;3.63;2.03;;;16.80;89.60;;;;;;5018384;28;20192;-88
2021/08/08 06:05:00;;;;;;;2.00;1.80;;;16.80;88.80;;;;;;5020148;28;20203;-89
2021/08/08 06:07:25;;;;;;;2.13;1.80;;;16.90;89.60;;;;;;5019440;28;20222;-88
2021/08/08 06:09:51;;;;;;;4.27;1.93;;;16.80;89.30;;;;;;5017260;28;20217;-89
2021/08/08 06:12:17;;;;;;;4.87;2.10;;;16.80;89.20;;;;;;5016439;28;20202;-86
2021/08/08 06:14:43;;;;;;;2.67;1.83;;;16.80;89.30;;;;;;5020189;28;20201;-87
2021/08/08 06:17:08;;;;;;;3.57;1.70;;;16.90;88.50;;;;;;5019952;28;20200;-87
2021/08/08 06:19:34;;;;;;;3.37;1.90;;;16.80;88.60;;;;;;5017003;28;20194;-88
2021/08/08 06:22:00;;;;;;;2.07;1.87;;;16.90;89.80;;;;;;5018004;28;20212;-87
2021/08/08 06:24:25;;;;;;;2.77;1.93;;;16.90;89.10;;;;;;5020756;28;20194;-88
2021/08/08 06:26:51;;;;;;;2.30;1.87;;;16.90;89.10;;;;;;5015421;28;20237;-89
2021/08/08 06:29:17;;;;;;;1.90;1.70;;;17.00;88.30;;;;;;5016617;28;20219;-88
2021/08/08 06:31:42;;;;;;;2.73;1.70;;;17.10;88.10;;;;;;5018071;28;20296;-86
2021/08/08 06:34:08;;;;;;;2.83;1.90;;;17.00;89.60;;;;;;5018411;28;20202;-89
2021/08/08 06:36:34;;;;;;;2.30;2.10;;;17.10;88.60;;;;;;5018326;28;20276;-89
2021/08/08 06:39:04;;;;;;;4.00;2.03;;;17.00;89.40;;;;;;5015187;28;20261;-87
2021/08/08 06:41:30;;;;;;;2.30;2.10;;;17.10;88.90;;;;;;5015921;28;20225;-88
2021/08/08 06:43:55;;;;;;;3.97;1.90;;;17.00;89.30;;;;;;5015954;28;20188;-88
2021/08/08 06:46:28;;;;;;;2.83;2.30;;;17.10;89.00;;;;;;5015303;28;20203;-88
2021/08/08 06:48:53;;;;;;;2.77;2.20;;;17.30;89.20;;;;;;5014104;28;20683;-89
2021/08/08 06:51:19;;;;;;;2.30;2.10;;;17.50;87.20;;;;;;5019193;28;20219;-89
2021/08/08 06:53:45;;;;;;;8.97;2.47;;;17.80;86.80;;;;;;5015166;28;20195;-89
2021/08/08 06:56:11;;;;;;;4.53;2.10;;;17.80;86.10;;;;;;5013600;28;20253;-88
2021/08/08 06:58:36;;;;;;;4.63;2.10;;;17.70;86.20;;;;;;5016083;28;20271;-89
2021/08/08 07:01:02;;;;;;;3.57;2.00;;;17.70;85.60;;;;;;5017723;28;20592;-88
2021/08/08 07:03:28;;;;;;;5.80;2.40;;;17.70;85.50;;;;;;4999871;28;20201;-87
2021/08/08 07:05:53;;;;;;;4.67;2.10;;;17.80;85.90;;;;;;5030927;28;20608;-88
2021/08/08 07:08:19;;;;;;;2.27;2.00;;;17.80;86.10;;;;;;5014707;28;20268;-88
2021/08/08 07:10:45;;;;;;;2.20;2.00;;;17.80;85.80;;;;;;4998725;28;20233;-87
2021/08/08 07:13:11;;;;;;;4.93;2.33;;;17.90;85.50;;;;;;5022477;28;20195;-86
2021/08/08 07:15:37;;;;;;;3.97;2.13;;;17.80;85.40;;;;;;5018907;28;20279;-88
2021/08/08 07:18:03;;;;;;;3.80;2.30;;;17.80;85.60;;;;;;5020054;28;20211;-88
2021/08/08 07:20:28;;;;;;;6.73;2.33;;;17.90;85.30;;;;;;5021022;28;20216;-88
2021/08/08 07:22:54;;;;;;;2.53;2.07;;;18.00;83.90;;;;;;5031873;28;20199;-87
2021/08/08 07:25:20;;;;;;;5.53;2.60;;;18.20;85.60;;;;;;5016229;28;20193;-87
2021/08/08 07:27:45;;;;;;;3.43;2.30;;;18.30;83.20;;;;;;5015721;28;20225;-87
2021/08/08 07:30:11;;;;;;;5.47;2.30;;;18.40;83.40;;;;;;5014282;28;20253;-87
2021/08/08 07:32:37;;;;;;;2.73;2.23;;;18.50;82.40;;;;;;5023234;28;20185;-86
2021/08/08 07:35:03;;;;;;;4.23;2.40;;;18.40;82.80;;;;;;5025579;28;20195;-88
2021/08/08 07:37:29;;;;;;;4.43;2.70;;;18.40;82.00;;;;;;5029156;28;20304;-88
2021/08/08 07:39:55;;;;;;;3.00;2.33;;;18.30;83.70;;;;;;5017547;28;20201;-88
2021/08/08 07:42:21;;;;;;;6.00;2.40;;;18.30;83.00;;;;;;5015762;28;20202;-87
2021/08/08 07:44:48;;;;;;;2.47;2.13;;;18.40;80.10;;;;;;5007580;28;20195;-87
2021/08/08 07:47:16;;;;;;;4.67;2.17;;;18.60;80.30;;;;;;5017364;28;20176;-87
2021/08/08 07:49:42;;;;;;;4.47;2.40;;;18.60;80.50;;;;;;5016377;28;20226;-87
2021/08/08 07:52:08;;;;;;;6.50;2.50;;;18.60;82.30;;;;;;5012661;28;20191;-87
2021/08/08 07:54:34;;;;;;;6.17;2.77;;;18.60;80.30;;;;;;5017215;28;20204;-87
2021/08/08 07:57:00;;;;;;;5.57;2.67;;;18.40;79.80;;;;;;5033815;28;21078;-87
2021/08/08 07:59:25;;;;;;;3.65;2.40;;;18.40;79.60;;;;;;5012569;28;20242;-87
2021/08/08 08:01:51;;;;;;;3.03;2.42;;;18.50;81.20;;;;;;5013511;28;20188;-87
2021/08/08 08:04:19;;;;;;;3.38;2.30;;;18.70;79.10;;;;;;5019219;28;20191;-88
2021/08/08 08:06:45;;;;;;;3.05;2.42;;;18.80;80.40;;;;;;5014550;28;20189;-87
2021/08/08 08:09:12;;;;;;;3.70;2.70;;;18.80;77.90;;;;;;5023150;28;20245;-88
2021/08/08 08:11:42;;;;;;;4.80;2.77;;;18.80;77.80;;;;;;5014722;28;20283;-87
2021/08/08 08:14:09;;;;;;;4.27;2.87;;;18.60;78.50;;;;;;5016509;28;20273;-88
2021/08/08 08:16:35;;;;;;;5.57;2.90;;;18.50;79.40;;;;;;5019054;28;20190;-87
2021/08/08 08:19:01;;;;;;;4.80;2.83;;;18.40;79.40;;;;;;4994687;28;20208;-87
2021/08/08 08:21:27;;;;;;;5.55;3.03;;;18.60;79.30;;;;;;5010275;28;20303;-88
2021/08/08 08:23:52;;;;;;;5.33;2.57;;;18.50;80.30;;;;;;5022257;28;20193;-87
2021/08/08 08:26:18;;;;;;;5.03;2.63;;;18.30;81.70;;;;;;5033386;28;20203;-88
2021/08/08 08:28:44;;;;;;;6.10;2.70;;;18.40;80.60;;;;;;5018822;28;20269;-87
2021/08/08 08:31:10;;;;;;;3.70;2.37;;;18.30;80.00;;;;;;5023470;28;20308;-87
2021/08/08 08:33:37;;;;;;;5.07;3.20;;;18.40;81.70;;;;;;5019018;28;20320;-87
2021/08/08 08:36:03;;;;;;;4.30;2.80;;;18.40;81.90;;;;;;5013590;28;20866;-87
2021/08/08 08:38:29;;;;;;;5.30;3.00;;;18.50;83.40;;;;;;5016386;28;20222;-87
2021/08/08 08:40:56;;;;;;;3.43;2.83;;;18.40;83.40;;;;;;5017678;28;20634;-88
2021/08/08 08:43:26;;;;;;;7.70;2.80;;;18.50;82.30;;;;;;5013964;28;20183;-87
2021/08/08 08:45:52;;;;;;;3.80;2.90;;;18.30;84.40;;;;;;5029897;28;20219;-87
2021/08/08 08:48:19;;;;;;;6.20;3.30;;;18.40;84.50;;;;;;5014575;28;20196;-88
2021/08/08 08:50:53;;;;;;;3.83;3.23;;;18.20;81.90;;;;;;5015540;28;20222;-87
2021/08/08 08:53:19;;;;;;;3.87;2.93;;;18.00;82.50;;;;;;5020477;28;20947;-87
2021/08/08 08:55:45;;;;;;;3.93;3.03;;;18.10;81.30;;;;;;5017097;28;20226;-87
2021/08/08 08:58:11;;;;;;;4.68;3.00;;;18.30;81.90;;;;;;5017675;28;20220;-87
2021/08/08 09:00:37;;;;;;;4.30;3.22;;;18.50;80.60;;;;;;5016936;28;21550;-87
2021/08/08 09:03:03;;;;;;;4.30;3.17;;;18.80;79.10;;;;;;5023382;28;20212;-87
2021/08/08 09:05:30;;;;;;;5.30;3.10;;;18.90;78.70;;;;;;5017459;28;20758;-87
2021/08/08 09:07:56;;;;;;;4.27;3.07;;;18.90;77.30;;;;;;5020771;28;20627;-88
2021/08/08 09:10:23;;;;;;;3.28;2.97;;;18.90;77.20;;;;;;5018755;28;20216;-88
2021/08/08 09:13:03;;;;;;;3.20;2.90;;;19.20;76.00;;;;;;5035971;28;20237;-88
2021/08/08 09:15:36;;;;;;;3.40;3.08;;;19.40;76.80;;;;;;5020379;28;20205;-88
2021/08/08 09:18:18;;;;;;;5.78;3.40;;;19.30;75.80;;;;;;5016594;28;20211;-87
2021/08/08 09:20:45;;;;;;;3.20;2.90;;;19.20;75.20;;;;;;5030706;28;20995;-88
2021/08/08 09:23:12;;;;;;;5.25;3.00;;;19.30;77.00;;;;;;5019875;28;20325;-87
2021/08/08 09:25:53;;;;;;;6.88;3.00;;;19.70;75.80;;;;;;5013221;28;20560;-87
2021/08/08 09:28:27;;;;;;;7.78;2.80;;;20.10;73.50;;;;;;5033225;28;20200;-85
2021/08/08 09:30:54;;;;;;;5.60;3.20;;;20.30;72.10;;;;;;5016312;28;20542;-88
2021/08/08 09:33:19;;;;;;;5.10;3.30;;;20.30;72.00;;;;;;5013618;28;20201;-88
2021/08/08 09:35:49;;;;;;;5.25;3.13;;;20.20;72.60;;;;;;5015210;28;20189;-87
2021/08/08 09:38:15;;;;;;;4.47;3.42;;;20.00;72.50;;;;;;5020835;28;20209;-87
2021/08/08 09:40:42;;;;;;;7.20;3.33;;;20.30;72.50;;;;;;5017937;28;20238;-87
2021/08/08 09:43:09;;;;;;;5.72;3.22;;;20.30;70.80;;;;;;5015390;28;20236;-88
2021/08/08 09:45:42;;;;;;;3.47;2.97;;;20.60;70.80;;;;;;5015109;28;20177;-88
2021/08/08 09:48:11;;;;;;;6.43;3.25;;;20.90;70.80;;;;;;5020029;28;20200;-88
2021/08/08 09:50:42;;;;;;;3.50;3.13;;;21.00;71.00;;;;;;5019210;28;20233;-88
2021/08/08 09:53:16;;;;;;;5.40;3.35;;;20.90;67.90;;;;;;5016038;28;20248;-88
2021/08/08 09:55:42;;;;;;;5.03;3.28;;;20.90;69.10;;;;;;5017048;28;20210;-88
2021/08/08 09:58:11;;;;;;;7.47;3.63;;;20.70;64.80;;;;;;5012863;28;20200;-88
2021/08/08 10:00:40;;;;;;;5.57;3.38;;;20.60;67.50;;;;;;5019487;28;20206;-88
2021/08/08 10:03:08;;;;;;;8.25;3.72;;;20.60;66.90;;;;;;5014712;28;20233;-88
2021/08/08 10:05:40;;;;;;;5.75;3.67;;;20.60;68.70;;;;;;5016455;28;20190;-88
2021/08/08 10:08:07;;;;;;;4.65;3.20;;;20.60;66.30;;;;;;5017275;28;20196;-89
2021/08/08 10:10:37;;;;;;;4.05;3.30;;;20.50;67.00;;;;;;5011644;28;20757;-88
2021/08/08 10:13:30;;;;;;;4.60;3.22;;;20.40;68.60;;;;;;5019269;28;20200;-88
2021/08/08 10:15:59;;;;;;;5.78;3.83;;;20.00;67.60;;;;;;5021527;28;20197;-88
2021/08/08 10:18:29;;;;;;;4.63;3.70;;;19.90;67.80;;;;;;5014568;28;20241;-89
2021/08/08 10:20:55;;;;;;;7.03;3.60;;;19.70;68.30;;;;;;5018922;28;20209;-88
2021/08/08 10:23:22;;;;;;;5.95;3.15;;;19.80;67.30;;;;;;5015206;28;20202;-88
2021/08/08 10:25:50;;;;;;;8.48;3.92;;;19.90;67.50;;;;;;5008913;28;20210;-88
2021/08/08 10:28:17;;;;;;;3.67;2.78;;;20.10;69.00;;;;;;5019138;28;20194;-88
2021/08/08 10:30:44;;;;;;;4.30;2.88;;;20.20;66.20;;;;;;5015428;28;20210;-89
2021/08/08 10:33:11;;;;;;;4.22;2.53;;;19.80;69.10;;;;;;5035037;28;20189;-89
2021/08/08 10:35:47;;;;;;;3.95;2.50;;;19.60;68.50;;;;;;5035072;28;20195;-89
2021/08/08 10:38:14;;;;;;;5.05;2.70;;;19.70;70.00;;;;;;5027699;28;20196;-89
2021/08/08 10:40:41;;;;;;;3.90;2.65;;;19.80;68.60;;;;;;5034406;28;20312;-88
2021/08/08 10:43:09;;;;;;;3.60;2.80;;;20.00;68.70;;;;;;5026870;28;20188;-90
2021/08/08 10:45:37;;;;;;;4.30;3.22;;;20.00;70.50;;;;;;5050469;28;20204;-88
2021/08/08 10:48:08;;;;;;;5.05;3.20;;;19.80;70.90;;;;;;5031805;28;20188;-88
2021/08/08 10:50:44;;;;;;;5.50;2.88;;;19.40;72.10;;;;;;5031835;28;20261;-89
2021/08/08 10:53:27;;;;;;;3.90;2.85;;;19.20;73.80;;;;;;5034320;28;20172;-88
2021/08/08 10:56:12;;;;;;;4.57;2.50;;;19.10;72.20;;;;;;5027644;28;20216;-89
2021/08/08 10:58:40;;;;;;;4.78;2.70;;;19.10;72.70;;;;;;5034754;28;20224;-89
2021/08/08 11:01:16;;;;;;;6.22;3.05;;;19.60;69.70;;;;;;5033866;28;20185;-88
2021/08/08 11:03:52;;;;;;;3.35;2.60;;;19.80;69.10;;;;;;5028229;28;20269;-89
2021/08/08 11:06:20;;;;;;;6.53;3.35;;;19.80;70.30;;;;;;5011189;28;20193;-88
2021/08/08 11:08:51;;;;;;;3.55;3.03;;;19.90;71.70;;;;;;5016752;28;20201;-88
2021/08/08 11:11:22;;;;;;;5.70;2.83;;;19.90;70.80;;;;;;5013187;28;20217;-88
2021/08/08 11:13:48;;;;;;;5.88;3.03;;;20.00;71.40;;;;;;5018475;28;20277;-88
2021/08/08 11:16:14;;;;;;;6.50;3.33;;;19.90;71.60;;;;;;5018000;28;20281;-89
2021/08/08 11:18:40;;;;;;;6.40;3.45;;;19.90;72.90;;;;;;5018591;28;20635;-88
2021/08/08 11:21:13;;;;;;;5.80;3.00;;;19.60;75.10;;;;;;5015533;28;20214;-88
2021/08/08 11:23:39;;;;;;;5.90;3.08;;;19.50;75.60;;;;;;5011045;28;20184;-88
2021/08/08 11:26:05;;;;;;;3.47;3.17;;;19.30;77.50;;;;;;5016849;28;20192;-88
2021/08/08 11:28:30;;;;;;;3.90;3.00;;;19.00;76.60;;;;;;5020732;28;20211;-88
2021/08/08 11:30:56;;;;;;;5.20;2.70;;;18.80;76.40;;;;;;5025724;28;20212;-88
2021/08/08 11:33:27;;;;;;;4.57;2.83;;;18.50;77.80;;;;;;5026256;28;20298;-88
2021/08/08 11:36:00;;;;;;;5.03;2.60;;;18.50;78.30;;;;;;5017367;28;20217;-87
2021/08/08 11:38:30;;;;;;;4.13;2.37;;;18.50;77.60;;;;;;5019668;28;20307;-87
2021/08/08 11:40:57;;;;;;;3.80;2.67;;;19.00;77.10;;;;;;5013091;28;20531;-88
2021/08/08 11:43:30;;;;;;;6.95;3.13;;;19.70;75.40;;;;;;5011898;28;20346;-88
2021/08/08 11:45:58;;;;;;;3.20;2.90;;;19.90;75.30;;;;;;5013281;28;20188;-88
2021/08/08 11:48:30;;;;;;;4.25;2.75;;;19.70;75.60;;;;;;5002262;28;20200;-88
2021/08/08 11:51:01;;;;;;;4.78;3.00;;;20.10;75.10;;;;;;5019871;28;20296;-87
2021/08/08 11:53:37;;;;;;;3.50;3.20;;;20.90;71.40;;;;;;5013604;28;20259;-89
2021/08/08 11:56:11;;;;;;;4.68;2.70;;;20.60;68.80;;;;;;5018097;28;20295;-88
2021/08/08 11:58:53;;;;;;;3.13;2.88;;;20.10;70.50;;;;;;5022809;28;20234;-88
2021/08/08 12:01:20;;;;;;;4.78;2.70;;;20.20;71.70;;;;;;5021423;28;20213;-88
2021/08/08 12:03:51;;;;;;;3.90;2.60;;;20.80;70.10;;;;;;5011943;28;20628;-87
2021/08/08 12:06:24;;;;;;;3.47;2.95;;;21.40;67.10;;;;;;5018179;28;20248;-88
2021/08/08 12:08:54;;;;;;;3.40;2.60;;;21.60;67.20;;;;;;5013589;28;20560;-88
2021/08/08 12:11:21;;;;;;;3.83;2.75;;;21.50;66.00;;;;;;5011560;28;20313;-89
2021/08/08 12:14:03;;;;;;;3.78;2.50;;;21.80;67.10;;;;;;5013234;28;20243;-88
2021/08/08 12:16:34;;;;;;;3.60;2.60;;;22.00;64.70;;;;;;5013104;28;20221;-88
2021/08/08 12:19:01;;;;;;;3.67;3.15;;;22.30;64.30;;;;;;5015944;28;20279;-88
2021/08/08 12:21:32;;;;;;;3.42;2.55;;;22.20;63.80;;;;;;5018784;28;20205;-88
2021/08/08 12:24:09;;;;;;;3.38;2.58;;;22.40;62.50;;;;;;5018873;28;20207;-88
2021/08/08 12:26:48;;;;;;;3.30;2.90;;;22.50;62.40;;;;;;5003098;28;20209;-89
2021/08/08 12:29:14;;;;;;;3.58;2.60;;;23.30;62.60;;;;;;5013940;28;20190;-89
2021/08/08 12:31:41;;;;;;;3.65;2.90;;;23.40;59.10;;;;;;5014502;28;20312;-88
2021/08/08 12:34:12;;;;;;;3.15;2.80;;;23.50;59.40;;;;;;5019575;28;20190;-88
2021/08/08 12:36:43;;;;;;;3.88;3.25;;;23.70;59.10;;;;;;5018861;28;20204;-88
2021/08/08 12:39:10;;;;;;;2.78;2.50;;;23.80;58.60;;;;;;5035134;28;20224;-88
2021/08/08 12:41:41;;;;;;;3.78;3.40;;;24.00;57.80;;;;;;5017845;28;20276;-88
2021/08/08 12:44:08;;;;;;;5.45;4.95;;;24.40;56.50;;;;;;5018618;28;20193;-88
2021/08/08 12:46:39;;;;;;;3.83;3.28;;;24.20;57.50;;;;;;5018040;28;20186;-89
2021/08/08 12:49:11;;;;;;;4.05;3.08;;;24.80;54.60;;;;;;5020212;28;20190;-89
2021/08/08 12:51:45;;;;;;;2.95;2.40;;;24.10;56.30;;;;;;5016950;28;20214;-89